Time;durP1;ratioP1;P1;durP2;ratioP2;P2;SDS_P1;SDS_P2;PMS_P1;PMS_P2;Temp;Humidity;BMP_temperature;BMP_pressure;BME280_temperature;BME280_humidity;BME280_pressure;Samples;Min_cycle;Max_cycle;Signal;HPM_P1;HPM_P2
2021/03/24 00:01:51;;;;;;;8.57;4.33;;;;;;;-4.18;76.31;92891.27;1831038;76;21060;-71
2021/03/24 00:04:20;;;;;;;7.67;4.13;;;;;;;-4.24;77.12;92901.28;1826303;78;21607;-72
2021/03/24 00:06:47;;;;;;;10.70;3.83;;;;;;;-4.27;77.43;92903.78;1826264;78;21559;-73
2021/03/24 00:09:17;;;;;;;7.93;4.30;;;;;;;-4.30;77.16;92902.53;1810817;79;21581;-72
2021/03/24 00:11:46;;;;;;;7.87;4.03;;;;;;;-4.31;76.89;92903.63;1808476;75;21131;-73
2021/03/24 00:14:13;;;;;;;13.23;4.73;;;;;;;-4.32;76.43;92912.70;1883612;76;21584;-73
2021/03/24 00:16:42;;;;;;;8.53;4.57;;;;;;;-4.32;76.83;92903.41;1825893;76;21048;-72
2021/03/24 00:19:10;;;;;;;9.57;4.30;;;;;;;-4.36;76.62;92907.79;1805858;79;21051;-72
2021/03/24 00:21:37;;;;;;;8.23;3.93;;;;;;;-4.40;76.84;92902.33;1837302;77;21546;-72
2021/03/24 00:24:06;;;;;;;9.97;4.60;;;;;;;-4.38;76.80;92906.53;1792852;79;21361;-72
2021/03/24 00:26:34;;;;;;;7.67;3.63;;;;;;;-4.38;77.03;92906.53;1794819;80;21060;-71
2021/03/24 00:29:02;;;;;;;11.23;4.30;;;;;;;-4.37;77.06;92908.09;1820500;78;21059;-72
2021/03/24 00:31:31;;;;;;;12.33;4.20;;;;;;;-4.42;76.85;92897.09;1865062;76;21114;-72
2021/03/24 00:33:59;;;;;;;7.30;4.27;;;;;;;-4.41;76.53;92910.59;1849841;76;21104;-71
2021/03/24 00:36:27;;;;;;;14.20;5.20;;;;;;;-4.40;76.82;92905.50;1829837;76;21801;-72
2021/03/24 00:38:54;;;;;;;8.20;4.10;;;;;;;-4.40;76.61;92902.33;1882525;76;21500;-72
2021/03/24 00:41:21;;;;;;;6.00;3.47;;;;;;;-4.41;75.89;92906.05;1779205;80;21475;-71
2021/03/24 00:43:49;;;;;;;5.63;3.33;;;;;;;-4.46;75.97;92908.11;1814496;78;21123;-72
2021/03/24 00:46:16;;;;;;;5.63;3.53;;;;;;;-4.47;75.59;92915.84;1809638;78;21124;-72
2021/03/24 00:48:44;;;;;;;7.90;3.20;;;;;;;-4.47;75.40;92915.29;1858160;75;21800;-72
2021/03/24 00:51:12;;;;;;;4.70;3.07;;;;;;;-4.45;74.91;92916.29;1878185;76;21070;-72
2021/03/24 00:53:40;;;;;;;6.50;3.30;;;;;;;-4.49;73.03;92922.77;1812559;79;21032;-72
2021/03/24 00:56:07;;;;;;;4.63;3.13;;;;;;;-4.53;73.08;92923.72;1876405;76;21576;-71
2021/03/24 00:58:35;;;;;;;9.17;3.03;;;;;;;-4.55;73.45;92925.89;1836177;76;21123;-72
2021/03/24 01:01:02;;;;;;;4.70;2.60;;;;;;;-4.58;72.70;92931.84;1843934;76;22187;-72
2021/03/24 01:03:30;;;;;;;4.43;2.60;;;;;;;-4.60;71.96;92932.69;1868525;76;21056;-71
2021/03/24 01:09:23;;;;;;;3.97;2.77;;;;;;;-4.65;71.26;92937.61;1798650;79;21249;-73
2021/03/24 01:11:51;;;;;;;6.03;2.93;;;;;;;-4.71;71.58;92936.19;1812095;79;21028;-73
2021/03/24 01:14:19;;;;;;;4.93;3.13;;;;;;;-4.72;72.37;92939.39;1823219;78;21806;-72
2021/03/24 01:16:48;;;;;;;5.77;3.20;;;;;;;-4.73;72.23;92945.02;1827119;78;21105;-73
2021/03/24 01:19:16;;;;;;;5.63;3.57;;;;;;;-4.75;72.26;92942.66;1825752;78;21136;-73
2021/03/24 01:21:44;;;;;;;5.27;3.30;;;;;;;-4.74;72.02;92952.72;1811058;79;21035;-73
2021/03/24 01:24:11;;;;;;;3.20;2.57;;;;;;;-4.76;72.17;92950.94;1809335;76;21688;-73
2021/03/24 01:26:39;;;;;;;3.83;2.67;;;;;;;-4.83;71.34;92951.95;1883859;76;22126;-72
2021/03/24 01:29:06;;;;;;;7.23;3.57;;;;;;;-4.90;71.47;92947.88;1825465;76;21142;-73
2021/03/24 01:31:34;;;;;;;5.83;3.30;;;;;;;-4.90;72.14;92949.75;1814952;78;21037;-73
2021/03/24 01:34:01;;;;;;;5.83;2.93;;;;;;;-4.89;72.18;92953.95;1845712;76;21139;-72
2021/03/24 01:36:29;;;;;;;6.40;3.33;;;;;;;-4.86;72.51;92951.23;1875014;76;21113;-70
2021/03/24 01:38:57;;;;;;;6.50;3.33;;;;;;;-4.85;72.58;92956.25;1812574;78;21728;-71
2021/03/24 01:41:26;;;;;;;7.33;3.97;;;;;;;-4.84;71.92;92952.50;1812578;79;21095;-71
2021/03/24 01:43:55;;;;;;;4.17;3.10;;;;;;;-4.84;72.35;92952.50;1813930;78;21040;-71
2021/03/24 01:46:43;;;;;;;6.53;3.30;;;;;;;-4.84;72.11;92951.17;1813815;79;21546;-71
2021/03/24 01:49:29;;;;;;;5.23;3.07;;;;;;;-4.87;72.14;92958.41;1839518;76;21022;-73
2021/03/24 01:52:06;;;;;;;6.60;4.17;;;;;;;-4.89;71.68;92957.93;1864322;76;21594;-71
2021/03/24 01:54:38;;;;;;;5.43;3.83;;;;;;;-4.96;71.66;92962.39;1812970;78;21146;-72
2021/03/24 01:57:17;;;;;;;15.80;14.07;;;;;;;-5.00;71.80;92954.02;1815285;79;21123;-71
2021/03/24 01:59:45;;;;;;;6.20;3.87;;;;;;;-5.03;72.23;92963.38;1807359;79;21144;-72
2021/03/24 02:02:17;;;;;;;6.57;3.90;;;;;;;-5.05;72.30;92960.80;1819819;78;21111;-72
2021/03/24 02:04:48;;;;;;;16.53;9.80;;;;;;;-5.06;72.80;92958.69;1835380;77;22001;-72
2021/03/24 02:07:41;;;;;;;7.43;3.93;;;;;;;-5.06;72.93;92963.99;1834249;77;21191;-72
2021/03/24 02:10:19;;;;;;;15.80;8.90;;;;;;;-5.05;73.06;92966.87;1812611;78;21128;-73
2021/03/24 02:13:01;;;;;;;9.07;6.10;;;;;;;-5.04;72.98;92975.09;1816542;78;21242;-72
2021/03/24 02:15:36;;;;;;;7.80;4.00;;;;;;;-5.06;73.18;92973.27;1815111;78;21091;-72
2021/03/24 02:18:04;;;;;;;8.47;4.50;;;;;;;-5.06;73.42;92971.95;1821067;78;21363;-71
2021/03/24 02:20:41;;;;;;;8.13;4.70;;;;;;;-5.04;73.68;92974.28;1876259;76;21051;-71
2021/03/24 02:23:34;;;;;;;7.17;4.00;;;;;;;-5.06;73.60;92971.95;1832535;76;21100;-72
2021/03/24 02:26:30;;;;;;;7.73;4.20;;;;;;;-5.06;73.59;92975.92;1780544;80;21115;-73
2021/03/24 02:28:57;;;;;;;;;;;;;;;-5.07;73.42;92981.55;1817701;79;21122;-73
2021/03/24 02:31:25;;;;;;;4.57;3.27;;;;;;;-5.08;73.42;92987.38;1794982;80;21459;-72
2021/03/24 02:33:53;;;;;;;6.37;4.23;;;;;;;-5.12;72.92;92991.18;1794832;79;21685;-72
2021/03/24 02:36:21;;;;;;;8.27;3.40;;;;;;;-5.16;73.20;92993.44;1815099;79;21044;-72
2021/03/24 02:38:52;;;;;;;8.13;3.37;;;;;;;-5.22;73.83;92997.33;1815704;78;21052;-72
2021/03/24 02:41:20;;;;;;;7.10;4.33;;;;;;;-5.26;73.60;92996.38;1821022;78;21463;-72
2021/03/24 02:43:47;;;;;;;5.13;3.20;;;;;;;-5.29;73.72;92997.77;1832526;77;21644;-71
2021/03/24 02:46:15;;;;;;;6.07;3.97;;;;;;;-5.30;73.98;92997.54;1838926;77;21152;-72
2021/03/24 02:48:43;;;;;;;8.27;4.27;;;;;;;-5.29;74.09;93003.62;1790527;79;21175;-73
2021/03/24 02:51:15;;;;;;;6.50;3.90;;;;;;;-5.27;74.07;92994.25;1815169;79;21549;-70
2021/03/24 02:53:45;;;;;;;10.10;3.90;;;;;;;-5.31;73.97;92993.85;1804543;79;21148;-70
2021/03/24 02:56:12;;;;;;;7.60;4.40;;;;;;;-5.31;73.97;92993.85;1781366;80;22181;-71
2021/03/24 02:58:40;;;;;;;7.67;4.17;;;;;;;-5.33;73.87;92997.37;1817485;78;21489;-70
2021/03/24 03:01:19;;;;;;;6.60;4.33;;;;;;;-5.38;73.95;93003.56;1832895;75;21188;-71
2021/03/24 03:03:54;;;;;;;6.27;3.90;;;;;;;-5.43;74.00;93005.81;1878867;76;21104;-73
2021/03/24 03:06:23;;;;;;;;;;;;;;;-5.48;74.21;93013.91;1831620;78;21041;-71
2021/03/24 03:09:11;;;;;;;5.30;3.23;;;;;;;-5.53;74.37;93007.39;1826785;78;21363;-71
2021/03/24 03:11:59;;;;;;;5.33;3.20;;;;;;;-5.61;74.45;93008.91;1808621;78;21560;-72
2021/03/24 03:14:50;;;;;;;6.17;3.90;;;;;;;-5.65;74.47;93006.64;1826475;78;21084;-71
2021/03/24 03:17:22;;;;;;;4.93;3.47;;;;;;;-5.69;74.63;93007.55;1861137;76;21112;-70
2021/03/24 03:20:00;;;;;;;5.43;3.37;;;;;;;-5.72;74.55;93005.50;1852513;76;21096;-70
2021/03/24 03:22:32;;;;;;;8.73;3.53;;;;;;;-5.76;74.49;93018.57;1812948;78;21425;-70
2021/03/24 03:25:08;;;;;;;8.30;4.10;;;;;;;-5.83;73.99;93022.73;1815279;78;21056;-70
2021/03/24 03:27:35;;;;;;;10.30;4.47;;;;;;;-5.92;74.60;93024.05;1820944;78;21165;-69
2021/03/24 03:30:07;;;;;;;6.83;3.80;;;;;;;-5.96;74.71;93032.35;1878425;76;21043;-70
2021/03/24 03:32:35;;;;;;;7.23;4.27;;;;;;;-5.99;74.66;93021.03;1835194;75;21119;-73
2021/03/24 03:35:07;;;;;;;4.73;3.23;;;;;;;-6.00;74.89;93022.13;1814392;78;22207;-72
2021/03/24 03:37:34;;;;;;;9.33;4.80;;;;;;;-6.00;74.93;93025.55;1815008;78;21071;-72
2021/03/24 03:40:04;;;;;;;9.80;4.13;;;;;;;-6.00;75.25;93038.79;1814776;78;21051;-72
2021/03/24 03:42:32;;;;;;;6.50;4.00;;;;;;;-5.98;75.12;93037.96;1790911;79;21047;-72
2021/03/24 03:44:59;;;;;;;6.40;4.50;;;;;;;-5.94;75.19;93034.95;1820184;78;21122;-72
2021/03/24 03:47:27;;;;;;;6.43;4.00;;;;;;;-5.91;74.94;93042.23;1808361;76;22377;-72
2021/03/24 03:49:55;;;;;;;6.40;4.27;;;;;;;-5.88;74.68;93046.94;1854562;76;21150;-69
2021/03/24 03:52:43;;;;;;;8.70;4.27;;;;;;;-5.86;74.34;93038.70;1824843;76;21046;-73
2021/03/24 03:55:19;;;;;;;6.90;4.77;;;;;;;-5.89;74.48;93041.41;1873563;76;21122;-70
2021/03/24 03:57:56;;;;;;;8.23;4.83;;;;;;;-5.88;74.40;93040.86;1812670;79;21526;-72
2021/03/24 04:00:41;;;;;;;11.70;4.10;;;;;;;-5.88;74.28;93046.94;1816359;79;21181;-71
2021/03/24 04:03:15;;;;;;;9.53;4.30;;;;;;;-5.92;74.35;93045.97;1814024;76;21567;-71
2021/03/24 04:05:54;;;;;;;7.93;4.50;;;;;;;-5.94;74.27;93056.13;1831884;76;21060;-71
2021/03/24 04:08:28;;;;;;;7.67;4.73;;;;;;;-5.98;74.35;93049.87;1826131;76;21098;-72
2021/03/24 04:11:01;;;;;;;8.03;4.60;;;;;;;-6.01;74.55;93053.12;1856798;76;21542;-71
2021/03/24 04:13:30;;;;;;;7.07;4.53;;;;;;;-6.05;74.60;93058.77;1812456;79;22629;-71
2021/03/24 04:15:59;;;;;;;7.77;4.27;;;;;;;-6.08;74.78;93060.69;1812239;79;21154;-71
2021/03/24 04:18:42;;;;;;;6.60;4.47;;;;;;;-6.14;74.77;93063.98;1812269;79;21139;-71
2021/03/24 04:21:09;;;;;;;10.30;4.70;;;;;;;-6.16;74.89;93068.03;1812347;78;21123;-71
2021/03/24 04:23:42;;;;;;;8.53;4.43;;;;;;;-6.20;75.02;93070.48;1785791;79;21108;-70
2021/03/24 04:26:26;;;;;;;6.60;4.50;;;;;;;-6.22;75.08;93059.95;1842435;76;22078;-71
2021/03/24 04:28:57;;;;;;;6.77;4.00;;;;;;;-6.21;75.09;93066.80;1862050;76;21255;-71
2021/03/24 04:31:26;;;;;;;7.43;4.70;;;;;;;-6.20;74.88;93076.33;1819882;75;21585;-71
2021/03/24 04:33:54;;;;;;;11.33;5.70;;;;;;;-6.22;75.07;93083.23;1857265;76;21098;-71
2021/03/24 04:36:29;;;;;;;8.63;5.23;;;;;;;-6.19;75.10;93081.31;1819352;76;21061;-71
2021/03/24 04:38:58;;;;;;;9.57;4.83;;;;;;;-6.18;74.98;93082.87;1810538;78;21641;-71
2021/03/24 04:41:28;;;;;;;6.67;4.00;;;;;;;-6.16;75.15;93078.07;1810931;79;21720;-70
2021/03/24 04:44:04;;;;;;;7.33;4.17;;;;;;;-6.10;75.03;93086.66;1811166;78;21513;-71
2021/03/24 04:46:35;;;;;;;7.97;4.13;;;;;;;-6.10;74.86;93085.34;1810723;78;21459;-71
2021/03/24 04:49:06;;;;;;;6.40;3.57;;;;;;;-6.11;74.69;93095.16;1811126;79;21142;-71
2021/03/24 04:51:37;;;;;;;6.80;4.17;;;;;;;-6.08;74.71;93090.36;1879356;76;21281;-71
2021/03/24 04:54:25;;;;;;;7.33;3.90;;;;;;;-6.04;74.62;93091.32;1799960;77;21040;-71
2021/03/24 04:57:04;;;;;;;8.67;4.50;;;;;;;-6.01;74.56;93094.16;1815611;78;21039;-70
2021/03/24 04:59:45;;;;;;;7.97;4.07;;;;;;;-6.01;74.62;93097.34;1852781;76;21086;-72
2021/03/24 05:02:16;;;;;;;5.83;3.87;;;;;;;-5.98;74.67;93100.70;1857339;76;21059;-71
2021/03/24 05:05:23;;;;;;;6.93;4.60;;;;;;;-5.97;74.87;93103.06;1812587;79;22253;-71
2021/03/24 05:08:11;;;;;;;9.30;4.20;;;;;;;-5.97;74.78;93099.63;1812456;79;21108;-72
2021/03/24 05:10:40;;;;;;;9.07;4.77;;;;;;;-5.94;74.89;93102.47;1812268;79;21047;-71
2021/03/24 05:13:24;;;;;;;12.33;6.40;;;;;;;-5.92;75.04;93100.83;1812751;79;21119;-71
2021/03/24 05:16:02;;;;;;;10.87;7.20;;;;;;;-5.90;75.13;93109.24;1806885;79;21059;-72
2021/03/24 05:18:29;;;;;;;11.93;6.20;;;;;;;-5.92;75.20;93106.13;1787493;77;22595;-71
2021/03/24 05:21:09;;;;;;;10.57;6.53;;;;;;;-5.92;75.27;93106.88;1828750;75;21104;-71
2021/03/24 05:23:36;;;;;;;10.13;5.83;;;;;;;-5.93;75.29;93111.97;1865035;76;21129;-71
2021/03/24 05:26:08;;;;;;;11.37;5.30;;;;;;;-5.94;75.59;93115.70;1837046;77;21205;-72
2021/03/24 05:28:39;;;;;;;15.20;6.97;;;;;;;-5.91;75.61;93119.02;1843724;77;21141;-71
2021/03/24 05:31:12;;;;;;;16.53;6.60;;;;;;;-5.84;75.68;93121.27;1846887;77;21540;-72
2021/03/24 05:33:43;;;;;;;22.40;8.43;;;;;;;-5.78;75.82;93121.94;1837241;77;21078;-71
2021/03/24 05:36:22;;;;;;;14.37;6.17;;;;;;;-5.71;75.73;93132.91;1819352;78;21056;-71
2021/03/24 05:38:51;;;;;;;16.97;6.83;;;;;;;-5.63;75.46;93130.86;1836202;76;21648;-72
2021/03/24 05:41:48;;;;;;;20.33;6.97;;;;;;;-5.55;75.17;93132.00;1845271;76;21459;-71
2021/03/24 05:44:33;;;;;;;22.17;8.50;;;;;;;-5.51;75.11;93132.41;1878934;76;22125;-69
2021/03/24 05:47:21;;;;;;;28.92;10.23;;;;;;;-5.42;74.85;93136.44;1833670;77;21056;-71
2021/03/24 05:50:25;;;;;;;52.63;20.30;;;;;;;-5.29;74.94;93136.14;1846176;77;26337;-72
2021/03/24 05:53:18;;;;;;;56.03;22.30;;;;;;;-5.27;74.86;93136.61;1745403;81;20906;-71
2021/03/24 05:55:51;;;;;;;72.27;29.53;;;;;;;-5.19;74.63;93138.00;1811918;78;21514;-71
2021/03/24 05:58:51;;;;;;;32.50;13.97;;;;;;;-5.07;74.23;93136.66;1788988;78;21101;-71
2021/03/24 06:01:33;;;;;;;31.67;12.60;;;;;;;-5.01;73.98;93134.88;1790663;79;21164;-71
2021/03/24 06:04:24;;;;;;;24.17;10.73;;;;;;;-4.94;73.88;93140.53;1791217;78;21614;-70
2021/03/24 06:07:23;;;;;;;24.37;11.10;;;;;;;-4.90;73.71;93138.05;1795854;78;21119;-71
2021/03/24 06:10:30;;;;;;;33.40;13.10;;;;;;;-4.79;73.41;93138.57;1793138;79;21211;-70
2021/03/24 06:13:28;;;;;;;29.77;13.03;;;;;;;-4.72;73.26;93138.37;1797369;79;20925;-71
2021/03/24 06:16:16;;;;;;;40.13;13.00;;;;;;;-4.62;73.12;93142.63;1800882;79;21003;-71
2021/03/24 06:19:01;;;;;;;37.40;14.57;;;;;;;-4.52;72.77;93145.53;1817997;77;21064;-70
2021/03/24 06:21:47;;;;;;;24.02;9.95;;;;;;;-4.43;72.51;93151.67;1825053;77;21711;-71
2021/03/24 06:24:48;;;;;;;18.92;9.93;;;;;;;-4.35;72.10;93148.80;1844114;76;21567;-70
2021/03/24 06:27:45;;;;;;;16.43;7.63;;;;;;;-4.29;71.54;93152.86;1856105;76;21607;-71
2021/03/24 06:30:50;;;;;;;22.83;11.13;;;;;;;-4.15;71.04;93156.17;1804864;77;21109;-71
2021/03/24 06:33:58;;;;;;;17.10;7.53;;;;;;;-4.04;70.98;93154.02;1851296;77;21069;-71
2021/03/24 06:37:00;;;;;;;22.90;9.37;;;;;;;-3.95;70.25;93159.59;1850057;77;21464;-71
2021/03/24 06:40:05;;;;;;;38.03;15.20;;;;;;;-3.88;69.73;93156.45;1833071;77;21189;-71
2021/03/24 06:42:47;;;;;;;20.73;9.57;;;;;;;-3.79;69.60;93162.57;1832454;76;21108;-70
2021/03/24 06:45:20;;;;;;;14.10;7.23;;;;;;;-3.68;68.72;93167.81;1881761;76;21054;-71
2021/03/24 06:48:15;;;;;;;7.07;4.10;;;;;;;-3.59;68.27;93167.81;1855916;77;21481;-70
2021/03/24 06:50:48;;;;;;;7.73;4.80;;;;;;;-3.48;66.97;93161.09;1850583;77;21113;-72
2021/03/24 06:53:46;;;;;;;5.50;4.20;;;;;;;-3.39;66.41;93166.39;1838991;78;21792;-71
2021/03/24 06:56:48;;;;;;;9.67;4.80;;;;;;;-3.34;66.08;93168.91;1886378;75;21030;-72
2021/03/24 06:59:51;;;;;;;9.87;4.63;;;;;;;-3.22;65.47;93173.03;1797785;79;21041;-72
2021/03/24 07:02:48;;;;;;;9.10;3.90;;;;;;;-3.13;65.09;93174.90;1835248;77;21213;-70
2021/03/24 07:05:24;;;;;;;;;;;;;;;-3.12;64.48;93176.45;1883439;76;21364;-71
2021/03/24 07:08:16;;;;;;;7.63;3.80;;;;;;;-3.01;63.76;93175.84;1860467;76;21620;-71
2021/03/24 07:11:23;;;;;;;5.53;3.47;;;;;;;-2.94;63.68;93181.43;1866552;76;21529;-70
2021/03/24 07:14:46;;;;;;;8.60;4.07;;;;;;;-2.93;63.30;93183.56;1826763;77;21146;-71
2021/03/24 07:17:55;;;;;;;15.17;7.37;;;;;;;-2.94;62.97;93187.30;1863707;77;21035;-71
2021/03/24 07:20:57;;;;;;;9.87;5.73;;;;;;;-2.87;63.33;93190.27;1806970;79;21107;-72
2021/03/24 07:23:57;;;;;;;7.57;4.20;;;;;;;-2.74;62.68;93187.98;1808953;79;21805;-70
2021/03/24 07:26:58;;;;;;;4.23;2.40;;;;;;;-2.35;63.56;93192.78;1819906;78;21051;-71
2021/03/24 07:29:47;;;;;;;5.03;2.20;;;;;;;-1.68;60.75;93193.85;1819967;78;21165;-70
2021/03/24 07:32:24;;;;;;;8.00;3.50;;;;;;;-1.00;59.63;93189.65;1852641;77;21049;-71
2021/03/24 07:35:43;;;;;;;4.25;2.47;;;;;;;-0.36;58.85;93200.40;1850191;77;21540;-71
2021/03/24 07:38:31;;;;;;;4.72;2.95;;;;;;;0.15;57.80;93197.66;1839510;77;21184;-72
2021/03/24 07:41:33;;;;;;;3.25;2.33;;;;;;;0.65;56.25;93189.02;1836029;78;21218;-72
2021/03/24 07:44:21;;;;;;;3.92;2.58;;;;;;;0.99;55.22;93193.61;1809879;77;21115;-67
2021/03/24 07:47:15;;;;;;;3.40;2.65;;;;;;;1.08;52.41;93193.67;1861799;76;21164;-72
2021/03/24 07:50:20;;;;;;;3.50;2.95;;;;;;;1.24;54.06;93193.72;1825391;77;21140;-73
2021/03/24 07:53:08;;;;;;;3.37;2.50;;;;;;;1.56;51.95;93185.77;1853489;77;22454;-71
2021/03/24 07:55:44;;;;;;;3.35;2.58;;;;;;;1.58;50.58;93188.33;1873626;76;21533;-71
2021/03/24 07:58:40;;;;;;;4.53;2.55;;;;;;;1.49;51.08;93187.69;1872714;76;21120;-71
2021/03/24 08:01:46;;;;;;;5.03;2.98;;;;;;;1.44;49.53;93189.29;1867005;76;21034;-71
2021/03/24 08:04:44;;;;;;;5.33;3.27;;;;;;;1.37;48.57;93208.63;1828990;76;21177;-71
2021/03/24 08:07:32;;;;;;;4.62;3.08;;;;;;;1.11;47.12;93206.95;1854536;77;21779;-69
2021/03/24 08:10:20;;;;;;;5.65;3.33;;;;;;;0.77;49.13;93213.63;1846900;77;21090;-73
2021/03/24 08:13:23;;;;;;;6.47;3.17;;;;;;;0.69;50.29;93218.00;1836413;78;21185;-74
2021/03/24 08:16:14;;;;;;;5.83;2.83;;;;;;;0.47;49.11;93216.58;1845449;76;21133;-73
2021/03/24 08:19:10;;;;;;;6.10;3.15;;;;;;;0.08;49.98;93216.16;1844413;76;21453;-74
2021/03/24 08:21:52;;;;;;;5.53;2.75;;;;;;;-0.18;49.64;93219.14;1845733;76;22470;-72
2021/03/24 08:25:00;;;;;;;4.65;2.30;;;;;;;-0.13;52.08;93218.91;1849406;77;21136;-74
2021/03/24 08:27:48;;;;;;;4.50;2.00;;;;;;;0.17;50.05;93218.15;1809913;75;28538;-73
2021/03/24 08:30:21;;;;;;;3.52;2.55;;;;;;;0.35;50.25;93216.03;1885445;76;21144;-73
2021/03/24 08:33:14;;;;;;;3.05;1.47;;;;;;;0.44;48.59;93223.37;1775136;80;21090;-73
2021/03/24 08:36:09;;;;;;;3.25;2.08;;;;;;;0.57;48.39;93225.49;1831174;78;21213;-72
2021/03/24 08:39:22;;;;;;;2.72;1.50;;;;;;;0.82;48.65;93210.71;1822534;78;21107;-73
2021/03/24 08:45:39;;;;;;;1.77;1.00;;;;;;;1.10;45.54;93221.47;1843335;77;22672;-74
2021/03/24 08:48:11;;;;;;;2.92;1.30;;;;;;;1.26;46.12;93219.61;1862157;75;21117;-73
2021/03/24 08:50:56;;;;;;;1.00;0.85;;;;;;;1.62;44.90;93218.67;1844823;76;21635;-74
2021/03/24 08:53:58;;;;;;;2.90;1.40;;;;;;;2.01;44.84;93218.88;1782984;80;20980;-72
2021/03/24 08:56:58;;;;;;;2.60;1.20;;;;;;;2.18;42.17;93217.20;1851331;75;21114;-74
2021/03/24 08:59:39;;;;;;;2.27;1.32;;;;;;;2.47;42.32;93218.42;1846054;76;21133;-74
2021/03/24 09:02:41;;;;;;;3.45;2.17;;;;;;;3.06;38.95;93212.82;1835138;76;20976;-69
2021/03/24 09:05:37;;;;;;;2.00;1.07;;;;;;;3.06;38.95;93212.82;1801580;78;21324;-73
2021/03/24 09:08:36;;;;;;;2.02;1.20;;;;;;;2.95;39.97;93221.79;1830528;75;20994;-73
2021/03/24 09:11:24;;;;;;;2.35;1.40;;;;;;;3.25;41.48;93217.42;1839074;77;21208;-73
2021/03/24 09:14:08;;;;;;;1.98;1.27;;;;;;;3.10;39.55;93241.11;1820116;77;21170;-73
2021/03/24 09:17:08;;;;;;;2.83;1.70;;;;;;;2.91;41.60;93212.31;1833283;76;21219;-73
2021/03/24 09:20:15;;;;;;;3.37;1.47;;;;;;;2.96;39.82;93216.63;1862403;77;21646;-73
2021/03/24 09:23:25;;;;;;;3.62;1.80;;;;;;;2.69;39.91;93224.49;1862177;77;21158;-73
2021/03/24 09:26:18;;;;;;;2.20;1.50;;;;;;;2.52;40.76;93219.48;1862986;77;21186;-73
2021/03/24 09:29:13;;;;;;;2.70;1.98;;;;;;;2.75;40.90;93208.34;1816279;77;21175;-69
2021/03/24 09:32:09;;;;;;;4.53;2.45;;;;;;;3.04;41.49;93215.06;1826159;77;21096;-72
2021/03/24 09:34:59;;;;;;;3.27;2.10;;;;;;;2.51;40.78;93214.69;1824433;78;21315;-72
2021/03/24 09:37:36;;;;;;;3.05;2.52;;;;;;;2.51;40.78;93214.69;1824478;77;21055;-71
2021/03/24 09:40:14;;;;;;;2.43;2.10;;;;;;;2.41;41.59;93212.56;1816292;79;22702;-76
2021/03/24 09:42:49;;;;;;;3.45;2.17;;;;;;;2.48;39.59;93222.09;1785698;78;21081;-74
2021/03/24 09:45:23;;;;;;;5.47;2.33;;;;;;;2.29;41.63;93216.66;1871884;75;21487;-71
2021/03/24 09:48:08;;;;;;;2.08;1.92;;;;;;;2.24;41.65;93219.05;1865833;75;21507;-72
2021/03/24 09:51:05;;;;;;;;;;;;;;;2.34;42.20;93219.09;1799146;76;21585;-73
2021/03/24 09:53:40;;;;;;;2.90;2.12;;;;;;;2.42;39.25;93199.34;1860702;76;20220;-73
2021/03/24 09:56:18;;;;;;;3.45;2.22;;;;;;;2.04;40.66;93221.45;1852189;75;21691;-70
2021/03/24 09:59:02;;;;;;;3.70;2.70;;;;;;;1.91;42.45;93214.80;1868316;76;21183;-73
2021/03/24 10:01:48;;;;;;;4.00;2.45;;;;;;;1.92;41.98;93206.99;1848589;77;20973;-72
2021/03/24 10:04:42;;;;;;;4.25;2.60;;;;;;;1.83;42.75;93214.41;1782855;79;21041;-73
2021/03/24 10:07:22;;;;;;;4.65;2.08;;;;;;;1.73;42.03;93211.45;1808535;78;21139;-73
2021/03/24 10:10:19;;;;;;;2.58;2.05;;;;;;;1.46;41.71;93205.78;1741048;79;21077;-74
2021/03/24 10:13:15;;;;;;;5.05;2.10;;;;;;;1.35;42.59;93200.14;1797340;77;21104;-73
2021/03/24 10:16:21;;;;;;;3.95;2.15;;;;;;;1.37;42.23;93194.45;1786761;77;21164;-73
2021/03/24 10:19:09;;;;;;;4.12;1.75;;;;;;;1.36;41.78;93203.63;1840073;76;21054;-73
2021/03/24 10:21:48;;;;;;;3.87;2.05;;;;;;;1.39;43.82;93198.89;1835581;76;21581;-70
2021/03/24 10:24:32;;;;;;;4.67;2.37;;;;;;;1.47;41.93;93197.98;1795200;78;21081;-70
2021/03/24 10:27:13;;;;;;;3.15;1.80;;;;;;;1.38;41.77;93206.16;1770570;79;21331;-72
2021/03/24 10:29:49;;;;;;;2.90;2.27;;;;;;;1.12;42.87;93209.28;1784645;79;21153;-71
2021/03/24 10:32:48;;;;;;;3.52;1.95;;;;;;;1.10;45.00;93213.44;1792849;77;21137;-72
2021/03/24 10:35:47;;;;;;;3.17;1.90;;;;;;;1.26;42.97;93210.80;1880219;76;21512;-71
2021/03/24 10:38:50;;;;;;;3.92;2.17;;;;;;;1.42;43.10;93207.59;1852159;76;21100;-71
2021/03/24 10:41:32;;;;;;;4.30;2.08;;;;;;;1.72;43.40;93213.36;1835784;77;21249;-72
2021/03/24 10:44:17;;;;;;;3.67;2.05;;;;;;;1.98;40.87;93213.42;1780993;78;21154;-72
2021/03/24 10:47:03;;;;;;;3.80;2.33;;;;;;;1.81;42.69;93216.67;1835508;78;21664;-72
2021/03/24 10:49:43;;;;;;;5.58;3.27;;;;;;;1.66;41.36;93210.73;1826884;78;21061;-71
2021/03/24 10:52:18;;;;;;;2.95;2.25;;;;;;;1.65;43.76;93203.79;1845500;77;21027;-70
2021/03/24 10:54:58;;;;;;;3.92;1.85;;;;;;;1.86;43.36;93207.02;1837712;77;21753;-72
2021/03/24 10:57:40;;;;;;;2.12;1.55;;;;;;;2.02;41.86;93207.02;1779740;79;21122;-71
2021/03/24 11:00:53;;;;;;;3.37;1.90;;;;;;;1.90;39.46;93203.86;1795030;78;21112;-72
2021/03/24 11:03:23;;;;;;;3.27;2.05;;;;;;;1.73;40.17;93196.17;1800471;78;21579;-71
2021/03/24 11:06:05;;;;;;;7.33;3.45;;;;;;;1.81;42.37;93196.56;1776467;80;21108;-71
2021/03/24 11:08:55;;;;;;;3.72;2.08;;;;;;;2.12;43.43;93197.69;1854026;75;21869;-72
2021/03/24 11:11:32;;;;;;;3.50;1.95;;;;;;;2.19;39.88;93204.00;1787113;77;21510;-72
2021/03/24 11:14:04;;;;;;;2.17;1.72;;;;;;;1.98;42.30;93200.80;1815444;78;21063;-72
2021/03/24 11:17:09;;;;;;;3.98;2.12;;;;;;;1.81;41.33;93199.24;1803395;79;21080;-71
2021/03/24 11:19:43;;;;;;;2.65;1.27;;;;;;;1.81;41.47;93215.33;1822856;77;21100;-71
2021/03/24 11:22:39;;;;;;;3.72;1.70;;;;;;;1.96;42.63;93193.67;1878225;76;21715;-72
2021/03/24 11:25:25;;;;;;;4.55;2.02;;;;;;;1.95;40.87;93204.16;1881109;76;21083;-72
2021/03/24 11:28:07;;;;;;;1.32;1.05;;;;;;;1.75;40.79;93205.97;1876762;76;21060;-71
2021/03/24 11:30:39;;;;;;;1.95;1.40;;;;;;;1.68;40.07;93195.06;1883768;76;21123;-72
2021/03/24 11:33:18;;;;;;;4.00;1.55;;;;;;;1.57;40.62;93190.77;1873612;76;21128;-71
2021/03/24 11:36:01;;;;;;;2.50;1.42;;;;;;;1.50;41.99;93191.92;1812457;79;21482;-72
2021/03/24 11:38:47;;;;;;;4.15;1.70;;;;;;;1.58;41.42;93196.36;1866398;76;21487;-71
2021/03/24 11:41:22;;;;;;;2.90;2.27;;;;;;;1.72;42.12;93185.77;1882710;76;21119;-71
2021/03/24 11:44:18;;;;;;;2.62;1.70;;;;;;;1.91;42.04;93187.20;1878171;76;21472;-71
2021/03/24 11:46:53;;;;;;;5.20;1.72;;;;;;;2.03;42.88;93199.22;1841463;76;21009;-69
2021/03/24 11:50:08;;;;;;;3.83;1.55;;;;;;;2.03;41.41;93199.75;1781190;80;21144;-73
2021/03/24 11:52:44;;;;;;;3.72;2.95;;;;;;;1.77;41.84;93200.25;1813492;77;21104;-72
2021/03/24 11:56:02;;;;;;;10.28;3.55;;;;;;;1.71;40.55;93207.78;1877228;76;21017;-71
2021/03/24 11:58:47;;;;;;;7.85;2.85;;;;;;;1.67;40.16;93198.31;1880105;76;21053;-73
2021/03/24 12:01:38;;;;;;;3.45;1.90;;;;;;;1.62;40.66;93199.91;1876811;76;21130;-72
2021/03/24 12:04:34;;;;;;;4.35;1.70;;;;;;;1.63;43.08;93204.14;1882223;76;20990;-73
2021/03/24 12:07:09;;;;;;;3.52;1.65;;;;;;;1.82;42.28;93208.84;1817436;75;26101;-71
2021/03/24 12:09:39;;;;;;;2.50;1.55;;;;;;;1.99;41.48;93205.02;1884942;76;21088;-72
2021/03/24 12:12:21;;;;;;;3.72;1.92;;;;;;;2.00;42.66;93203.92;1874089;76;21037;-70
2021/03/24 12:15:19;;;;;;;2.62;1.40;;;;;;;2.06;42.28;93194.47;1885901;76;21035;-72
2021/03/24 12:17:48;;;;;;;2.25;1.32;;;;;;;2.11;42.10;93198.25;1874296;76;21614;-73
2021/03/24 12:20:19;;;;;;;4.17;2.10;;;;;;;2.31;42.46;93195.07;1881727;76;21163;-72
2021/03/24 12:22:51;;;;;;;3.83;1.50;;;;;;;2.43;42.80;93192.84;1879674;76;21081;-74
2021/03/24 12:25:28;;;;;;;2.85;1.72;;;;;;;2.60;41.33;93190.36;1877197;76;21451;-73
2021/03/24 12:28:03;;;;;;;4.42;1.87;;;;;;;2.78;40.48;93201.47;1883975;76;21801;-73
2021/03/24 12:30:40;;;;;;;2.72;1.67;;;;;;;2.89;40.32;93197.10;1874692;76;22264;-74
2021/03/24 12:33:22;;;;;;;3.52;2.45;;;;;;;2.76;39.59;93198.37;1808548;79;21064;-73
2021/03/24 12:36:19;;;;;;;1.85;1.50;;;;;;;2.75;40.80;93191.45;1868257;76;21503;-73
2021/03/24 12:38:58;;;;;;;2.02;1.77;;;;;;;2.90;39.47;93190.62;1883535;76;21182;-73
2021/03/24 12:41:40;;;;;;;2.60;1.90;;;;;;;2.79;40.02;93191.73;1878375;76;21080;-72
2021/03/24 12:44:30;;;;;;;2.62;1.92;;;;;;;2.80;41.57;93187.91;1837887;76;21894;-73
2021/03/24 12:47:02;;;;;;;3.12;1.80;;;;;;;2.84;41.43;93193.36;1812498;79;21487;-74
2021/03/24 12:49:36;;;;;;;2.00;1.62;;;;;;;2.89;40.34;93197.10;1779656;80;21076;-74
2021/03/24 12:52:32;;;;;;;3.40;1.98;;;;;;;2.58;40.11;93194.72;1782919;79;21290;-74